sensor_id;sensor_type;location;lat;lon;timestamp;pressure;altitude;pressure_sealevel;temperature;humidity
72961;BME280;61141;46.204;19.774;2024-02-16T00:02:51;101193.81;;;2.04;100.00
72961;BME280;61141;46.204;19.774;2024-02-16T00:05:55;101202.78;;;2.37;100.00
72961;BME280;61141;46.204;19.774;2024-02-16T00:08:57;101184.88;;;2.22;100.00
72961;BME280;61141;46.204;19.774;2024-02-16T00:12:01;101212.34;;;2.29;100.00
72961;BME280;61141;46.204;19.774;2024-02-16T00:15:04;101213.22;;;2.25;100.00
72961;BME280;61141;46.204;19.774;2024-02-16T00:18:07;101208.16;;;2.00;100.00
72961;BME280;61141;46.204;19.774;2024-02-16T00:21:10;101204.56;;;1.86;100.00
72961;BME280;61141;46.204;19.774;2024-02-16T00:24:13;101207.06;;;1.82;100.00
72961;BME280;61141;46.204;19.774;2024-02-16T00:27:16;101177.44;;;1.53;100.00
72961;BME280;61141;46.204;19.774;2024-02-16T00:30:19;101190.44;;;1.51;100.00
72961;BME280;61141;46.204;19.774;2024-02-16T00:33:22;101199.59;;;1.74;100.00
72961;BME280;61141;46.204;19.774;2024-02-16T00:36:26;101196.19;;;1.68;100.00
72961;BME280;61141;46.204;19.774;2024-02-16T00:39:30;101193.19;;;1.46;100.00
72961;BME280;61141;46.204;19.774;2024-02-16T00:42:33;101201.81;;;1.48;100.00
72961;BME280;61141;46.204;19.774;2024-02-16T00:45:36;101204.19;;;1.50;100.00
72961;BME280;61141;46.204;19.774;2024-02-16T00:48:39;101202.31;;;1.50;100.00
72961;BME280;61141;46.204;19.774;2024-02-16T00:51:42;101196.56;;;1.57;100.00
72961;BME280;61141;46.204;19.774;2024-02-16T00:54:45;101193.53;;;1.40;100.00
72961;BME280;61141;46.204;19.774;2024-02-16T00:57:49;101192.16;;;1.42;100.00
72961;BME280;61141;46.204;19.774;2024-02-16T01:00:52;101188.19;;;1.58;100.00
72961;BME280;61141;46.204;19.774;2024-02-16T01:03:55;101186.16;;;1.69;100.00
72961;BME280;61141;46.204;19.774;2024-02-16T01:06:59;101188.03;;;2.11;100.00
72961;BME280;61141;46.204;19.774;2024-02-16T01:10:01;101175.25;;;2.16;100.00
72961;BME280;61141;46.204;19.774;2024-02-16T01:13:06;101172.84;;;2.15;100.00
72961;BME280;61141;46.204;19.774;2024-02-16T01:16:09;101181.31;;;2.46;100.00
72961;BME280;61141;46.204;19.774;2024-02-16T01:19:12;101177.09;;;2.21;100.00
72961;BME280;61141;46.204;19.774;2024-02-16T01:22:15;101177.13;;;2.16;100.00
72961;BME280;61141;46.204;19.774;2024-02-16T01:25:18;101179.41;;;1.90;100.00
72961;BME280;61141;46.204;19.774;2024-02-16T01:28:21;101154.88;;;1.87;100.00
72961;BME280;61141;46.204;19.774;2024-02-16T01:31:24;101168.72;;;1.80;100.00
72961;BME280;61141;46.204;19.774;2024-02-16T01:34:27;101134.44;;;1.38;100.00
72961;BME280;61141;46.204;19.774;2024-02-16T01:37:30;101149.72;;;1.66;100.00
72961;BME280;61141;46.204;19.774;2024-02-16T01:40:33;101163.44;;;1.51;100.00
72961;BME280;61141;46.204;19.774;2024-02-16T01:43:36;101153.06;;;1.40;100.00
72961;BME280;61141;46.204;19.774;2024-02-16T01:46:39;101152.72;;;1.46;100.00
72961;BME280;61141;46.204;19.774;2024-02-16T01:49:42;101125.44;;;1.24;100.00
72961;BME280;61141;46.204;19.774;2024-02-16T01:52:46;101162.87;;;1.54;100.00
72961;BME280;61141;46.204;19.774;2024-02-16T01:55:50;101162.72;;;1.64;100.00
72961;BME280;61141;46.204;19.774;2024-02-16T01:58:53;101157.34;;;1.83;100.00
72961;BME280;61141;46.204;19.774;2024-02-16T02:01:57;101158.81;;;2.13;100.00
72961;BME280;61141;46.204;19.774;2024-02-16T02:05:00;101160.19;;;1.92;100.00
72961;BME280;61141;46.204;19.774;2024-02-16T02:08:09;101160.84;;;1.84;100.00
72961;BME280;61141;46.204;19.774;2024-02-16T02:11:13;101161.00;;;2.11;100.00
72961;BME280;61141;46.204;19.774;2024-02-16T02:14:15;101163.13;;;1.95;100.00
72961;BME280;61141;46.204;19.774;2024-02-16T02:17:18;101163.69;;;1.73;100.00
72961;BME280;61141;46.204;19.774;2024-02-16T02:20:21;101158.22;;;1.78;100.00
72961;BME280;61141;46.204;19.774;2024-02-16T02:23:24;101156.75;;;1.44;100.00
72961;BME280;61141;46.204;19.774;2024-02-16T02:26:27;101164.94;;;1.39;100.00
72961;BME280;61141;46.204;19.774;2024-02-16T02:29:31;101162.16;;;1.67;100.00
72961;BME280;61141;46.204;19.774;2024-02-16T02:32:33;101160.91;;;1.60;100.00
72961;BME280;61141;46.204;19.774;2024-02-16T02:35:36;101159.63;;;1.52;100.00
72961;BME280;61141;46.204;19.774;2024-02-16T02:38:39;101163.88;;;1.58;100.00
72961;BME280;61141;46.204;19.774;2024-02-16T02:41:42;101157.38;;;1.41;100.00
72961;BME280;61141;46.204;19.774;2024-02-16T02:44:45;101162.41;;;1.47;100.00
72961;BME280;61141;46.204;19.774;2024-02-16T02:47:53;101159.44;;;1.49;100.00
72961;BME280;61141;46.204;19.774;2024-02-16T02:50:55;101161.38;;;1.43;100.00
72961;BME280;61141;46.204;19.774;2024-02-16T02:53:59;101162.87;;;1.31;100.00
72961;BME280;61141;46.204;19.774;2024-02-16T02:57:03;101166.31;;;1.12;100.00
72961;BME280;61141;46.204;19.774;2024-02-16T03:00:07;101130.25;;;0.80;100.00
72961;BME280;61141;46.204;19.774;2024-02-16T03:03:13;101159.34;;;0.83;100.00
72961;BME280;61141;46.204;19.774;2024-02-16T03:06:20;101159.09;;;0.79;100.00
72961;BME280;61141;46.204;19.774;2024-02-16T03:09:22;101157.16;;;1.08;100.00
72961;BME280;61141;46.204;19.774;2024-02-16T03:12:25;101165.81;;;0.82;100.00
72961;BME280;61141;46.204;19.774;2024-02-16T03:15:29;101143.75;;;0.75;100.00
72961;BME280;61141;46.204;19.774;2024-02-16T03:18:33;101125.06;;;0.83;100.00
72961;BME280;61141;46.204;19.774;2024-02-16T03:21:36;101150.22;;;1.02;100.00
72961;BME280;61141;46.204;19.774;2024-02-16T03:24:39;101154.03;;;1.01;100.00
72961;BME280;61141;46.204;19.774;2024-02-16T03:27:43;101153.47;;;0.76;100.00
72961;BME280;61141;46.204;19.774;2024-02-16T03:30:46;101129.34;;;0.61;100.00
72961;BME280;61141;46.204;19.774;2024-02-16T03:33:50;101157.66;;;0.58;100.00
72961;BME280;61141;46.204;19.774;2024-02-16T03:36:54;101162.44;;;0.95;100.00
72961;BME280;61141;46.204;19.774;2024-02-16T03:39:56;101161.19;;;0.87;100.00
72961;BME280;61141;46.204;19.774;2024-02-16T03:43:00;101159.16;;;0.74;100.00
72961;BME280;61141;46.204;19.774;2024-02-16T03:46:03;101138.16;;;0.71;100.00
72961;BME280;61141;46.204;19.774;2024-02-16T03:49:06;101159.50;;;0.91;100.00
72961;BME280;61141;46.204;19.774;2024-02-16T03:52:09;101157.81;;;0.72;100.00
72961;BME280;61141;46.204;19.774;2024-02-16T03:55:11;101162.25;;;0.86;100.00
72961;BME280;61141;46.204;19.774;2024-02-16T03:58:14;101172.75;;;0.59;100.00
72961;BME280;61141;46.204;19.774;2024-02-16T04:01:17;101172.94;;;0.34;100.00
72961;BME280;61141;46.204;19.774;2024-02-16T04:04:20;101171.88;;;0.35;100.00
72961;BME280;61141;46.204;19.774;2024-02-16T04:07:23;101172.16;;;0.28;100.00
72961;BME280;61141;46.204;19.774;2024-02-16T04:10:26;101151.87;;;0.70;100.00
72961;BME280;61141;46.204;19.774;2024-02-16T04:13:29;101163.63;;;0.84;100.00
72961;BME280;61141;46.204;19.774;2024-02-16T04:16:32;101178.53;;;0.76;100.00
72961;BME280;61141;46.204;19.774;2024-02-16T04:19:36;101169.72;;;0.66;100.00
72961;BME280;61141;46.204;19.774;2024-02-16T04:22:39;101177.06;;;0.60;100.00
72961;BME280;61141;46.204;19.774;2024-02-16T04:25:42;101175.44;;;0.59;100.00
72961;BME280;61141;46.204;19.774;2024-02-16T04:28:45;101176.81;;;0.56;100.00
72961;BME280;61141;46.204;19.774;2024-02-16T04:31:47;101183.63;;;0.49;100.00
72961;BME280;61141;46.204;19.774;2024-02-16T04:34:51;101151.03;;;0.45;100.00
72961;BME280;61141;46.204;19.774;2024-02-16T04:37:58;101177.16;;;0.79;100.00
72961;BME280;61141;46.204;19.774;2024-02-16T04:41:01;101179.59;;;0.46;100.00
72961;BME280;61141;46.204;19.774;2024-02-16T04:44:04;101155.34;;;0.46;100.00
72961;BME280;61141;46.204;19.774;2024-02-16T04:47:07;101179.84;;;0.45;100.00
72961;BME280;61141;46.204;19.774;2024-02-16T04:50:09;101170.53;;;0.32;100.00
72961;BME280;61141;46.204;19.774;2024-02-16T04:53:12;101185.72;;;0.18;100.00
72961;BME280;61141;46.204;19.774;2024-02-16T04:56:15;101181.97;;;0.14;100.00
72961;BME280;61141;46.204;19.774;2024-02-16T04:59:18;101152.47;;;-0.06;100.00
72961;BME280;61141;46.204;19.774;2024-02-16T05:02:21;101185.94;;;0.27;100.00
72961;BME280;61141;46.204;19.774;2024-02-16T05:05:24;101172.84;;;0.10;100.00
72961;BME280;61141;46.204;19.774;2024-02-16T05:08:27;101191.19;;;0.08;100.00
72961;BME280;61141;46.204;19.774;2024-02-16T05:11:32;101188.59;;;0.32;100.00
72961;BME280;61141;46.204;19.774;2024-02-16T05:14:35;101183.94;;;0.42;100.00
72961;BME280;61141;46.204;19.774;2024-02-16T05:17:39;101186.50;;;0.24;100.00
72961;BME280;61141;46.204;19.774;2024-02-16T05:20:43;101134.34;;;-0.34;100.00
72961;BME280;61141;46.204;19.774;2024-02-16T05:23:49;101191.88;;;0.24;100.00
72961;BME280;61141;46.204;19.774;2024-02-16T05:26:51;101190.75;;;0.30;100.00
72961;BME280;61141;46.204;19.774;2024-02-16T05:29:54;101186.06;;;0.07;100.00
72961;BME280;61141;46.204;19.774;2024-02-16T05:32:57;101191.53;;;-0.09;100.00
72961;BME280;61141;46.204;19.774;2024-02-16T05:36:02;101182.87;;;-0.01;100.00
72961;BME280;61141;46.204;19.774;2024-02-16T05:39:06;101179.53;;;0.18;100.00
72961;BME280;61141;46.204;19.774;2024-02-16T05:42:23;101164.28;;;-0.02;100.00
72961;BME280;61141;46.204;19.774;2024-02-16T05:45:26;101181.78;;;0.39;100.00
72961;BME280;61141;46.204;19.774;2024-02-16T05:48:30;101164.28;;;-0.02;100.00
72961;BME280;61141;46.204;19.774;2024-02-16T05:51:37;101192.13;;;0.27;100.00
72961;BME280;61141;46.204;19.774;2024-02-16T05:54:42;101164.28;;;0.37;100.00
72961;BME280;61141;46.204;19.774;2024-02-16T05:57:44;101191.25;;;0.37;100.00
72961;BME280;61141;46.204;19.774;2024-02-16T06:00:48;101205.59;;;0.22;100.00
72961;BME280;61141;46.204;19.774;2024-02-16T06:03:51;101208.59;;;0.59;100.00
72961;BME280;61141;46.204;19.774;2024-02-16T06:06:54;101210.91;;;0.37;100.00
72961;BME280;61141;46.204;19.774;2024-02-16T06:09:58;101186.50;;;0.24;100.00
72961;BME280;61141;46.204;19.774;2024-02-16T06:13:01;101206.87;;;0.35;100.00
72961;BME280;61141;46.204;19.774;2024-02-16T06:16:07;101202.13;;;0.22;100.00
72961;BME280;61141;46.204;19.774;2024-02-16T06:19:14;101206.69;;;0.26;100.00
72961;BME280;61141;46.204;19.774;2024-02-16T06:22:17;101195.94;;;0.60;100.00
72961;BME280;61141;46.204;19.774;2024-02-16T06:25:19;101209.72;;;0.53;100.00
72961;BME280;61141;46.204;19.774;2024-02-16T06:28:22;101209.41;;;0.94;100.00
72961;BME280;61141;46.204;19.774;2024-02-16T06:31:25;101219.16;;;1.13;100.00
72961;BME280;61141;46.204;19.774;2024-02-16T06:34:29;101228.19;;;1.28;100.00
72961;BME280;61141;46.204;19.774;2024-02-16T06:37:32;101234.91;;;1.30;100.00
72961;BME280;61141;46.204;19.774;2024-02-16T06:40:35;101224.97;;;1.02;100.00
72961;BME280;61141;46.204;19.774;2024-02-16T06:43:38;101238.47;;;1.26;100.00
72961;BME280;61141;46.204;19.774;2024-02-16T06:46:42;101237.03;;;1.33;100.00
72961;BME280;61141;46.204;19.774;2024-02-16T06:49:44;101233.78;;;1.36;100.00
72961;BME280;61141;46.204;19.774;2024-02-16T06:52:49;101232.50;;;1.29;100.00
72961;BME280;61141;46.204;19.774;2024-02-16T06:55:54;101239.00;;;1.75;100.00
72961;BME280;61141;46.204;19.774;2024-02-16T06:58:59;101244.34;;;1.80;100.00
72961;BME280;61141;46.204;19.774;2024-02-16T07:02:02;101240.31;;;1.77;100.00
72961;BME280;61141;46.204;19.774;2024-02-16T07:05:05;101244.84;;;2.06;100.00
72961;BME280;61141;46.204;19.774;2024-02-16T07:08:08;101251.78;;;2.30;100.00
72961;BME280;61141;46.204;19.774;2024-02-16T07:11:11;101247.94;;;2.36;100.00
72961;BME280;61141;46.204;19.774;2024-02-16T07:14:16;101257.84;;;2.78;100.00
72961;BME280;61141;46.204;19.774;2024-02-16T07:17:19;101248.59;;;2.98;100.00
72961;BME280;61141;46.204;19.774;2024-02-16T07:20:21;101229.19;;;3.23;100.00
72961;BME280;61141;46.204;19.774;2024-02-16T07:23:25;101254.03;;;3.58;100.00
72961;BME280;61141;46.204;19.774;2024-02-16T07:26:28;101258.94;;;3.96;99.54
72961;BME280;61141;46.204;19.774;2024-02-16T07:29:32;101259.63;;;4.15;98.63
72961;BME280;61141;46.204;19.774;2024-02-16T07:32:34;101254.75;;;4.40;97.61
72961;BME280;61141;46.204;19.774;2024-02-16T07:35:39;101255.59;;;4.85;95.21
72961;BME280;61141;46.204;19.774;2024-02-16T07:38:41;101254.78;;;4.62;95.23
72961;BME280;61141;46.204;19.774;2024-02-16T07:41:44;101259.59;;;4.87;93.58
72961;BME280;61141;46.204;19.774;2024-02-16T07:44:47;101259.78;;;5.13;93.33
72961;BME280;61141;46.204;19.774;2024-02-16T07:47:50;101262.47;;;5.66;91.38
72961;BME280;61141;46.204;19.774;2024-02-16T07:50:53;101267.16;;;5.43;91.98
72961;BME280;61141;46.204;19.774;2024-02-16T07:53:57;101268.41;;;5.76;91.15
72961;BME280;61141;46.204;19.774;2024-02-16T07:56:59;101267.84;;;5.88;90.39
72961;BME280;61141;46.204;19.774;2024-02-16T08:00:05;101258.91;;;5.96;88.80
72961;BME280;61141;46.204;19.774;2024-02-16T08:03:08;101263.94;;;6.28;86.52
72961;BME280;61141;46.204;19.774;2024-02-16T08:06:11;101266.03;;;6.31;86.36
72961;BME280;61141;46.204;19.774;2024-02-16T08:09:14;101265.53;;;6.12;86.24
72961;BME280;61141;46.204;19.774;2024-02-16T08:12:18;101266.78;;;6.06;87.27
72961;BME280;61141;46.204;19.774;2024-02-16T08:15:21;101275.06;;;5.93;86.81
72961;BME280;61141;46.204;19.774;2024-02-16T08:18:27;101267.34;;;6.42;85.95
72961;BME280;61141;46.204;19.774;2024-02-16T08:21:29;101276.31;;;6.52;84.97
72961;BME280;61141;46.204;19.774;2024-02-16T08:24:33;101269.91;;;6.56;84.66
72961;BME280;61141;46.204;19.774;2024-02-16T08:27:36;101269.41;;;6.88;85.02
72961;BME280;61141;46.204;19.774;2024-02-16T08:30:40;101263.03;;;6.67;83.53
72961;BME280;61141;46.204;19.774;2024-02-16T08:33:46;101267.31;;;7.02;82.14
72961;BME280;61141;46.204;19.774;2024-02-16T08:36:50;101269.56;;;6.83;82.56
72961;BME280;61141;46.204;19.774;2024-02-16T08:39:53;101248.38;;;7.23;80.64
72961;BME280;61141;46.204;19.774;2024-02-16T08:42:57;101267.44;;;7.32;79.84
72961;BME280;61141;46.204;19.774;2024-02-16T08:46:01;101272.78;;;7.57;79.10
72961;BME280;61141;46.204;19.774;2024-02-16T08:49:04;101272.28;;;7.18;78.18
72961;BME280;61141;46.204;19.774;2024-02-16T08:52:07;101269.41;;;7.60;78.87
72961;BME280;61141;46.204;19.774;2024-02-16T08:55:11;101263.87;;;7.40;79.14
72961;BME280;61141;46.204;19.774;2024-02-16T08:58:13;101265.62;;;7.44;78.77
72961;BME280;61141;46.204;19.774;2024-02-16T09:01:16;101272.47;;;7.97;77.14
72961;BME280;61141;46.204;19.774;2024-02-16T09:04:19;101258.84;;;7.97;77.20
72961;BME280;61141;46.204;19.774;2024-02-16T09:07:22;101249.12;;;8.37;76.37
72961;BME280;61141;46.204;19.774;2024-02-16T09:10:26;101262.12;;;8.81;73.38
72961;BME280;61141;46.204;19.774;2024-02-16T09:13:29;101263.06;;;8.65;72.63
72961;BME280;61141;46.204;19.774;2024-02-16T09:16:35;101261.41;;;8.52;71.90
72961;BME280;61141;46.204;19.774;2024-02-16T09:19:38;101260.06;;;8.78;70.48
72961;BME280;61141;46.204;19.774;2024-02-16T09:22:41;101256.12;;;8.67;72.80
72961;BME280;61141;46.204;19.774;2024-02-16T09:25:49;101262.41;;;8.89;72.32
72961;BME280;61141;46.204;19.774;2024-02-16T09:28:53;101260.97;;;9.36;69.65
72961;BME280;61141;46.204;19.774;2024-02-16T09:31:56;101264.63;;;9.07;70.26
72961;BME280;61141;46.204;19.774;2024-02-16T09:34:58;101266.81;;;9.14;68.29
72961;BME280;61141;46.204;19.774;2024-02-16T09:38:02;101270.09;;;9.64;68.02
72961;BME280;61141;46.204;19.774;2024-02-16T09:41:05;101269.62;;;9.38;68.23
72961;BME280;61141;46.204;19.774;2024-02-16T09:44:08;101275.47;;;9.97;65.67
72961;BME280;61141;46.204;19.774;2024-02-16T09:47:14;101270.00;;;10.09;65.88
72961;BME280;61141;46.204;19.774;2024-02-16T09:50:17;101271.03;;;9.68;67.81
72961;BME280;61141;46.204;19.774;2024-02-16T09:53:20;101284.06;;;10.08;66.33
72961;BME280;61141;46.204;19.774;2024-02-16T09:56:24;101269.44;;;10.03;65.80
72961;BME280;61141;46.204;19.774;2024-02-16T09:59:27;101273.69;;;10.25;65.24
72961;BME280;61141;46.204;19.774;2024-02-16T10:02:43;101271.31;;;10.24;65.85
72961;BME280;61141;46.204;19.774;2024-02-16T10:05:47;101265.09;;;10.02;66.72
72961;BME280;61141;46.204;19.774;2024-02-16T10:08:54;101265.56;;;9.92;65.63
72961;BME280;61141;46.204;19.774;2024-02-16T10:11:58;101257.13;;;9.73;64.56
72961;BME280;61141;46.204;19.774;2024-02-16T10:15:01;101263.97;;;9.91;64.84
72961;BME280;61141;46.204;19.774;2024-02-16T10:18:07;101262.16;;;10.32;63.97
72961;BME280;61141;46.204;19.774;2024-02-16T10:21:11;101268.88;;;10.46;63.34
72961;BME280;61141;46.204;19.774;2024-02-16T10:24:14;101243.41;;;10.46;63.00
72961;BME280;61141;46.204;19.774;2024-02-16T10:27:18;101249.25;;;10.72;62.01
72961;BME280;61141;46.204;19.774;2024-02-16T10:30:22;101261.72;;;10.70;62.87
72961;BME280;61141;46.204;19.774;2024-02-16T10:33:28;101229.03;;;10.49;62.22
72961;BME280;61141;46.204;19.774;2024-02-16T10:36:33;101249.09;;;10.93;62.13
72961;BME280;61141;46.204;19.774;2024-02-16T10:39:36;101243.13;;;10.91;60.47
72961;BME280;61141;46.204;19.774;2024-02-16T10:42:42;101243.50;;;10.89;61.06
72961;BME280;61141;46.204;19.774;2024-02-16T10:45:46;101237.72;;;11.06;60.94
72961;BME280;61141;46.204;19.774;2024-02-16T10:48:50;101240.19;;;11.11;60.08
72961;BME280;61141;46.204;19.774;2024-02-16T10:51:56;101231.69;;;11.01;59.83
72961;BME280;61141;46.204;19.774;2024-02-16T10:55:01;101215.72;;;10.91;59.52
72961;BME280;61141;46.204;19.774;2024-02-16T10:58:07;101211.59;;;10.97;60.32
72961;BME280;61141;46.204;19.774;2024-02-16T11:01:15;101212.22;;;10.90;58.88
72961;BME280;61141;46.204;19.774;2024-02-16T11:04:18;101204.56;;;10.84;56.49
72961;BME280;61141;46.204;19.774;2024-02-16T11:07:24;101206.75;;;11.21;57.40
72961;BME280;61141;46.204;19.774;2024-02-16T11:10:27;101196.69;;;11.26;57.23
72961;BME280;61141;46.204;19.774;2024-02-16T11:13:35;101197.84;;;11.56;53.63
72961;BME280;61141;46.204;19.774;2024-02-16T11:16:46;101190.78;;;11.70;55.08
72961;BME280;61141;46.204;19.774;2024-02-16T11:19:50;101184.59;;;11.73;54.68
72961;BME280;61141;46.204;19.774;2024-02-16T11:22:53;101186.97;;;11.44;55.91
72961;BME280;61141;46.204;19.774;2024-02-16T11:26:11;101190.75;;;11.86;53.11
72961;BME280;61141;46.204;19.774;2024-02-16T11:29:14;101186.53;;;11.73;53.43
72961;BME280;61141;46.204;19.774;2024-02-16T11:32:20;101185.13;;;11.79;55.06
72961;BME280;61141;46.204;19.774;2024-02-16T11:35:23;101190.94;;;11.62;53.07
72961;BME280;61141;46.204;19.774;2024-02-16T11:38:27;101182.09;;;11.84;53.37
72961;BME280;61141;46.204;19.774;2024-02-16T11:41:29;101176.66;;;12.03;53.07
72961;BME280;61141;46.204;19.774;2024-02-16T11:44:34;101170.13;;;11.92;53.06
72961;BME280;61141;46.204;19.774;2024-02-16T11:47:37;101177.44;;;12.04;53.21
72961;BME280;61141;46.204;19.774;2024-02-16T11:50:40;101175.44;;;11.85;52.91
72961;BME280;61141;46.204;19.774;2024-02-16T11:53:43;101167.91;;;11.66;53.58
72961;BME280;61141;46.204;19.774;2024-02-16T11:56:48;101163.13;;;11.63;54.90
72961;BME280;61141;46.204;19.774;2024-02-16T11:59:55;101166.78;;;11.83;54.04
72961;BME280;61141;46.204;19.774;2024-02-16T12:03:01;101170.03;;;11.89;53.96
72961;BME280;61141;46.204;19.774;2024-02-16T12:06:05;101160.72;;;11.93;53.54
72961;BME280;61141;46.204;19.774;2024-02-16T12:09:08;101158.06;;;11.97;52.94
72961;BME280;61141;46.204;19.774;2024-02-16T12:12:12;101158.25;;;11.88;53.11
72961;BME280;61141;46.204;19.774;2024-02-16T12:15:16;101153.31;;;12.13;52.92
72961;BME280;61141;46.204;19.774;2024-02-16T12:18:25;101153.47;;;12.20;52.67
72961;BME280;61141;46.204;19.774;2024-02-16T12:21:30;101145.78;;;12.29;52.17
72961;BME280;61141;46.204;19.774;2024-02-16T12:24:33;101148.19;;;12.30;52.66
72961;BME280;61141;46.204;19.774;2024-02-16T12:27:36;101145.87;;;12.32;52.74
72961;BME280;61141;46.204;19.774;2024-02-16T12:30:39;101145.53;;;12.34;51.92
72961;BME280;61141;46.204;19.774;2024-02-16T12:33:42;101145.75;;;12.45;51.89
72961;BME280;61141;46.204;19.774;2024-02-16T12:36:46;101144.31;;;12.31;51.09
72961;BME280;61141;46.204;19.774;2024-02-16T12:39:52;101138.34;;;12.29;51.06
72961;BME280;61141;46.204;19.774;2024-02-16T12:42:55;101147.47;;;12.33;52.33
72961;BME280;61141;46.204;19.774;2024-02-16T12:45:58;101117.31;;;12.18;51.07
72961;BME280;61141;46.204;19.774;2024-02-16T12:49:04;101135.56;;;12.26;51.29
72961;BME280;61141;46.204;19.774;2024-02-16T12:52:07;101130.69;;;12.38;51.59
72961;BME280;61141;46.204;19.774;2024-02-16T12:55:10;101118.56;;;12.40;50.64
72961;BME280;61141;46.204;19.774;2024-02-16T12:58:13;101107.78;;;12.12;50.74
72961;BME280;61141;46.204;19.774;2024-02-16T13:01:17;101094.63;;;12.21;51.04
72961;BME280;61141;46.204;19.774;2024-02-16T13:04:28;101116.53;;;12.17;49.78
72961;BME280;61141;46.204;19.774;2024-02-16T13:07:34;101118.28;;;12.25;50.84
72961;BME280;61141;46.204;19.774;2024-02-16T13:10:37;101114.94;;;12.35;51.02
72961;BME280;61141;46.204;19.774;2024-02-16T13:13:40;101117.97;;;12.30;50.46
72961;BME280;61141;46.204;19.774;2024-02-16T13:16:42;101116.25;;;12.42;51.41
72961;BME280;61141;46.204;19.774;2024-02-16T13:19:46;101112.19;;;12.35;50.45
72961;BME280;61141;46.204;19.774;2024-02-16T13:22:49;101107.56;;;12.40;51.14
72961;BME280;61141;46.204;19.774;2024-02-16T13:25:52;101114.50;;;12.33;51.41
72961;BME280;61141;46.204;19.774;2024-02-16T13:28:55;101110.97;;;12.33;51.42
72961;BME280;61141;46.204;19.774;2024-02-16T13:31:58;101110.88;;;12.29;48.84
72961;BME280;61141;46.204;19.774;2024-02-16T13:35:01;101111.37;;;12.35;50.50
72961;BME280;61141;46.204;19.774;2024-02-16T13:38:04;101109.09;;;12.37;49.89
72961;BME280;61141;46.204;19.774;2024-02-16T13:41:07;101103.53;;;12.33;50.16
72961;BME280;61141;46.204;19.774;2024-02-16T13:44:10;101110.25;;;12.17;50.89
72961;BME280;61141;46.204;19.774;2024-02-16T13:47:12;101104.37;;;12.18;50.53
72961;BME280;61141;46.204;19.774;2024-02-16T13:50:19;101087.47;;;12.16;51.57
72961;BME280;61141;46.204;19.774;2024-02-16T13:53:22;101107.84;;;12.34;51.36
72961;BME280;61141;46.204;19.774;2024-02-16T13:56:30;101098.44;;;12.35;50.87
72961;BME280;61141;46.204;19.774;2024-02-16T13:59:33;101095.50;;;12.25;50.35
72961;BME280;61141;46.204;19.774;2024-02-16T14:02:36;101102.09;;;12.20;50.50
72961;BME280;61141;46.204;19.774;2024-02-16T14:05:39;101100.63;;;12.07;50.34
72961;BME280;61141;46.204;19.774;2024-02-16T14:08:43;101081.97;;;12.16;49.78
72961;BME280;61141;46.204;19.774;2024-02-16T14:11:46;101086.44;;;12.44;49.99
72961;BME280;61141;46.204;19.774;2024-02-16T14:14:50;101092.38;;;12.26;50.30
72961;BME280;61141;46.204;19.774;2024-02-16T14:17:53;101091.53;;;12.22;50.91
72961;BME280;61141;46.204;19.774;2024-02-16T14:20:56;101090.66;;;12.18;51.67
72961;BME280;61141;46.204;19.774;2024-02-16T14:23:59;101092.03;;;12.09;51.58
72961;BME280;61141;46.204;19.774;2024-02-16T14:27:01;101093.59;;;12.10;50.69
72961;BME280;61141;46.204;19.774;2024-02-16T14:30:06;101092.84;;;12.09;50.11
72961;BME280;61141;46.204;19.774;2024-02-16T14:33:10;101095.72;;;11.97;49.16
72961;BME280;61141;46.204;19.774;2024-02-16T14:36:15;101088.19;;;11.94;51.19
72961;BME280;61141;46.204;19.774;2024-02-16T14:39:18;101069.88;;;11.83;50.75
72961;BME280;61141;46.204;19.774;2024-02-16T14:42:21;101091.31;;;11.93;51.06
72961;BME280;61141;46.204;19.774;2024-02-16T14:45:23;101076.69;;;11.89;51.80
72961;BME280;61141;46.204;19.774;2024-02-16T14:48:27;101079.72;;;11.84;52.57
72961;BME280;61141;46.204;19.774;2024-02-16T14:51:31;101077.91;;;11.72;52.20
72961;BME280;61141;46.204;19.774;2024-02-16T14:54:35;101074.44;;;11.75;52.97
72961;BME280;61141;46.204;19.774;2024-02-16T14:57:38;101079.41;;;11.69;53.00
72961;BME280;61141;46.204;19.774;2024-02-16T15:00:41;101077.97;;;11.60;53.79
72961;BME280;61141;46.204;19.774;2024-02-16T15:03:44;101087.00;;;11.60;53.06
72961;BME280;61141;46.204;19.774;2024-02-16T15:06:48;101085.34;;;11.56;52.77
72961;BME280;61141;46.204;19.774;2024-02-16T15:09:51;101082.66;;;11.40;53.54
72961;BME280;61141;46.204;19.774;2024-02-16T15:12:54;101076.97;;;11.33;53.07
72961;BME280;61141;46.204;19.774;2024-02-16T15:15:57;101080.16;;;11.35;52.93
72961;BME280;61141;46.204;19.774;2024-02-16T15:19:00;101088.66;;;11.30;53.11
72961;BME280;61141;46.204;19.774;2024-02-16T15:22:03;101088.06;;;11.21;53.69
72961;BME280;61141;46.204;19.774;2024-02-16T15:25:07;101078.41;;;11.11;53.46
72961;BME280;61141;46.204;19.774;2024-02-16T15:28:12;101083.47;;;11.09;53.93
72961;BME280;61141;46.204;19.774;2024-02-16T15:31:16;101085.69;;;11.04;54.22
72961;BME280;61141;46.204;19.774;2024-02-16T15:34:18;101087.53;;;10.84;54.06
72961;BME280;61141;46.204;19.774;2024-02-16T15:37:22;101091.50;;;10.71;54.90
72961;BME280;61141;46.204;19.774;2024-02-16T15:40:24;101078.44;;;10.52;55.60
72961;BME280;61141;46.204;19.774;2024-02-16T15:43:27;101092.69;;;10.58;55.45
72961;BME280;61141;46.204;19.774;2024-02-16T15:46:30;101092.06;;;10.49;56.03
72961;BME280;61141;46.204;19.774;2024-02-16T15:49:33;101092.13;;;10.37;56.43